sensor_id;sensor_type;location;lat;lon;timestamp;pressure;altitude;pressure_sealevel;temperature;humidity
34374;BME280;20637;55.770;37.592;2022-10-16T00:00:39;100904.50;;;8.23;57.89
34374;BME280;20637;55.770;37.592;2022-10-16T00:03:06;100904.75;;;8.20;57.95
34374;BME280;20637;55.770;37.592;2022-10-16T00:05:31;100909.69;;;8.14;58.19
34374;BME280;20637;55.770;37.592;2022-10-16T00:07:57;100903.44;;;8.03;58.58
34374;BME280;20637;55.770;37.592;2022-10-16T00:10:22;100907.94;;;8.02;58.48
34374;BME280;20637;55.770;37.592;2022-10-16T00:12:48;100909.41;;;8.06;58.98
34374;BME280;20637;55.770;37.592;2022-10-16T00:15:15;100910.28;;;8.07;58.84
34374;BME280;20637;55.770;37.592;2022-10-16T00:17:40;100912.84;;;8.08;58.44
34374;BME280;20637;55.770;37.592;2022-10-16T00:20:06;100921.75;;;8.09;58.70
34374;BME280;20637;55.770;37.592;2022-10-16T00:22:50;100920.19;;;8.06;58.64
34374;BME280;20637;55.770;37.592;2022-10-16T00:25:15;100919.69;;;8.01;58.76
34374;BME280;20637;55.770;37.592;2022-10-16T00:27:41;100930.78;;;7.97;58.74
34374;BME280;20637;55.770;37.592;2022-10-16T00:30:06;100923.69;;;7.96;58.93
34374;BME280;20637;55.770;37.592;2022-10-16T00:32:33;100920.03;;;7.97;58.82
34374;BME280;20637;55.770;37.592;2022-10-16T00:34:58;100922.63;;;7.98;58.66
34374;BME280;20637;55.770;37.592;2022-10-16T00:37:25;100922.63;;;7.98;59.17
34374;BME280;20637;55.770;37.592;2022-10-16T00:39:50;100924.53;;;7.96;59.21
34374;BME280;20637;55.770;37.592;2022-10-16T00:42:16;100927.22;;;7.96;58.74
34374;BME280;20637;55.770;37.592;2022-10-16T00:44:53;100939.00;;;7.95;59.16
34374;BME280;20637;55.770;37.592;2022-10-16T00:49:51;100932.25;;;7.90;59.22
34374;BME280;20637;55.770;37.592;2022-10-16T00:52:18;100934.94;;;7.90;59.72
34374;BME280;20637;55.770;37.592;2022-10-16T00:54:44;100935.19;;;7.87;59.23
34374;BME280;20637;55.770;37.592;2022-10-16T00:57:11;100935.28;;;7.85;59.77
34374;BME280;20637;55.770;37.592;2022-10-16T00:59:40;100938.94;;;7.84;59.28
34374;BME280;20637;55.770;37.592;2022-10-16T01:02:06;100938.72;;;7.87;59.47
34374;BME280;20637;55.770;37.592;2022-10-16T01:04:35;100940.41;;;7.88;59.76
34374;BME280;20637;55.770;37.592;2022-10-16T01:07:13;100940.41;;;7.88;59.69
34374;BME280;20637;55.770;37.592;2022-10-16T01:17:04;100942.75;;;7.82;59.71
34374;BME280;20637;55.770;37.592;2022-10-16T01:19:36;100948.88;;;7.84;59.71
34374;BME280;20637;55.770;37.592;2022-10-16T01:22:06;100951.31;;;7.87;59.79
34374;BME280;20637;55.770;37.592;2022-10-16T01:24:40;100952.19;;;7.87;59.51
34374;BME280;20637;55.770;37.592;2022-10-16T01:27:25;100953.25;;;7.85;59.99
34374;BME280;20637;55.770;37.592;2022-10-16T01:29:53;100954.97;;;7.86;59.49
34374;BME280;20637;55.770;37.592;2022-10-16T01:32:31;100948.00;;;7.83;59.80
34374;BME280;20637;55.770;37.592;2022-10-16T01:34:59;100956.66;;;7.76;60.00
34374;BME280;20637;55.770;37.592;2022-10-16T01:37:36;100957.25;;;7.68;59.62
34374;BME280;20637;55.770;37.592;2022-10-16T01:40:05;100956.16;;;7.71;59.86
34374;BME280;20637;55.770;37.592;2022-10-16T01:42:34;100960.31;;;7.75;59.78
34374;BME280;20637;55.770;37.592;2022-10-16T01:45:00;100962.16;;;7.74;59.54
34374;BME280;20637;55.770;37.592;2022-10-16T01:47:29;100962.38;;;7.71;59.33
34374;BME280;20637;55.770;37.592;2022-10-16T01:49:56;100963.47;;;7.68;60.04
34374;BME280;20637;55.770;37.592;2022-10-16T01:52:24;100962.97;;;7.63;59.72
34374;BME280;20637;55.770;37.592;2022-10-16T01:54:52;100958.66;;;7.61;60.18
34374;BME280;20637;55.770;37.592;2022-10-16T01:57:19;100956.75;;;7.63;60.18
34374;BME280;20637;55.770;37.592;2022-10-16T01:59:49;100959.66;;;7.60;59.66
34374;BME280;20637;55.770;37.592;2022-10-16T02:02:16;100965.03;;;7.60;59.81
34374;BME280;20637;55.770;37.592;2022-10-16T02:04:44;100968.59;;;7.60;60.21
34374;BME280;20637;55.770;37.592;2022-10-16T02:07:10;100960.53;;;7.60;60.00
34374;BME280;20637;55.770;37.592;2022-10-16T02:09:36;100968.81;;;7.57;60.21
34374;BME280;20637;55.770;37.592;2022-10-16T02:12:13;100971.63;;;7.56;60.17
34374;BME280;20637;55.770;37.592;2022-10-16T02:14:40;100967.22;;;7.55;60.06
34374;BME280;20637;55.770;37.592;2022-10-16T02:17:13;100965.72;;;7.51;60.02
34374;BME280;20637;55.770;37.592;2022-10-16T02:19:39;100966.84;;;7.48;59.96
34374;BME280;20637;55.770;37.592;2022-10-16T02:22:06;100972.66;;;7.42;60.00
34374;BME280;20637;55.770;37.592;2022-10-16T02:27:17;100964.78;;;7.52;60.64
34374;BME280;20637;55.770;37.592;2022-10-16T02:29:46;100967.22;;;7.55;60.30
34374;BME280;20637;55.770;37.592;2022-10-16T02:32:16;100973.44;;;7.55;60.45
34374;BME280;20637;55.770;37.592;2022-10-16T02:34:42;100967.84;;;7.58;60.42
34374;BME280;20637;55.770;37.592;2022-10-16T02:37:09;100965.03;;;7.60;60.18
34374;BME280;20637;55.770;37.592;2022-10-16T02:39:35;100965.91;;;7.60;60.46
34374;BME280;20637;55.770;37.592;2022-10-16T02:42:02;100972.25;;;7.59;60.38
34374;BME280;20637;55.770;37.592;2022-10-16T02:44:28;100977.72;;;7.58;60.76
34374;BME280;20637;55.770;37.592;2022-10-16T02:46:53;100977.88;;;7.56;60.18
34374;BME280;20637;55.770;37.592;2022-10-16T02:49:19;100988.59;;;7.56;60.49
34374;BME280;20637;55.770;37.592;2022-10-16T02:51:44;100972.69;;;7.53;60.53
34374;BME280;20637;55.770;37.592;2022-10-16T02:54:10;100978.94;;;7.54;60.41
34374;BME280;20637;55.770;37.592;2022-10-16T02:56:35;100978.31;;;7.50;60.28
34374;BME280;20637;55.770;37.592;2022-10-16T02:59:01;100978.44;;;7.49;60.24
34374;BME280;20637;55.770;37.592;2022-10-16T03:01:26;100983.69;;;7.50;60.46
34374;BME280;20637;55.770;37.592;2022-10-16T03:03:52;100983.06;;;7.47;60.19
34374;BME280;20637;55.770;37.592;2022-10-16T03:06:17;100977.41;;;7.39;60.31
34374;BME280;20637;55.770;37.592;2022-10-16T03:08:43;100982.38;;;7.32;60.61
34374;BME280;20637;55.770;37.592;2022-10-16T03:11:08;100981.13;;;7.25;60.48
34374;BME280;20637;55.770;37.592;2022-10-16T03:13:34;100992.84;;;7.24;60.76
34374;BME280;20637;55.770;37.592;2022-10-16T03:15:59;100994.66;;;7.24;60.60
34374;BME280;20637;55.770;37.592;2022-10-16T03:18:25;100991.97;;;7.24;60.64
34374;BME280;20637;55.770;37.592;2022-10-16T03:20:50;100991.13;;;7.23;60.81
34374;BME280;20637;55.770;37.592;2022-10-16T03:23:16;101001.13;;;7.21;60.75
34374;BME280;20637;55.770;37.592;2022-10-16T03:25:41;100993.19;;;7.19;60.80
34374;BME280;20637;55.770;37.592;2022-10-16T03:28:07;100993.19;;;7.19;60.71
34374;BME280;20637;55.770;37.592;2022-10-16T03:30:33;100998.69;;;7.18;61.14
34374;BME280;20637;55.770;37.592;2022-10-16T03:32:58;100996.81;;;7.18;61.03
34374;BME280;20637;55.770;37.592;2022-10-16T03:35:24;100996.63;;;7.22;61.11
34374;BME280;20637;55.770;37.592;2022-10-16T03:37:50;100995.63;;;7.23;61.21
34374;BME280;20637;55.770;37.592;2022-10-16T03:40:15;101010.06;;;7.22;60.87
34374;BME280;20637;55.770;37.592;2022-10-16T03:42:41;101008.44;;;7.19;60.83
34374;BME280;20637;55.770;37.592;2022-10-16T03:45:07;101004.88;;;7.18;61.10
34374;BME280;20637;55.770;37.592;2022-10-16T03:47:32;101012.13;;;7.18;61.18
34374;BME280;20637;55.770;37.592;2022-10-16T03:49:59;101007.69;;;7.17;61.31
34374;BME280;20637;55.770;37.592;2022-10-16T03:52:24;101010.63;;;7.14;61.41
34374;BME280;20637;55.770;37.592;2022-10-16T03:54:50;101006.31;;;7.11;61.21
34374;BME280;20637;55.770;37.592;2022-10-16T03:57:16;101016.56;;;7.06;61.71
34374;BME280;20637;55.770;37.592;2022-10-16T03:59:42;101007.09;;;7.01;61.58
34374;BME280;20637;55.770;37.592;2022-10-16T04:02:07;101001.09;;;6.97;61.62
34374;BME280;20637;55.770;37.592;2022-10-16T04:04:32;101010.25;;;6.95;61.45
34374;BME280;20637;55.770;37.592;2022-10-16T04:06:58;100999.53;;;6.95;61.69
34374;BME280;20637;55.770;37.592;2022-10-16T04:09:23;101010.25;;;6.95;61.72
34374;BME280;20637;55.770;37.592;2022-10-16T04:11:49;101000.34;;;6.95;62.03
34374;BME280;20637;55.770;37.592;2022-10-16T04:14:14;101011.09;;;6.95;61.74
34374;BME280;20637;55.770;37.592;2022-10-16T04:16:40;101008.53;;;6.94;62.00
34374;BME280;20637;55.770;37.592;2022-10-16T04:19:05;101001.44;;;6.93;62.04
34374;BME280;20637;55.770;37.592;2022-10-16T04:21:31;101009.38;;;6.94;62.08
34374;BME280;20637;55.770;37.592;2022-10-16T04:23:56;101000.56;;;6.92;62.01
34374;BME280;20637;55.770;37.592;2022-10-16T04:26:22;101012.41;;;6.90;62.17
34374;BME280;20637;55.770;37.592;2022-10-16T04:28:47;101014.31;;;6.88;61.95
34374;BME280;20637;55.770;37.592;2022-10-16T04:31:13;101020.78;;;6.85;62.14
34374;BME280;20637;55.770;37.592;2022-10-16T04:33:38;101024.66;;;6.81;62.22
34374;BME280;20637;55.770;37.592;2022-10-16T04:36:04;101020.25;;;6.80;62.28
34374;BME280;20637;55.770;37.592;2022-10-16T04:38:29;101019.75;;;6.75;62.04
34374;BME280;20637;55.770;37.592;2022-10-16T04:40:55;101011.88;;;6.72;62.32
34374;BME280;20637;55.770;37.592;2022-10-16T04:43:21;101019.84;;;6.74;62.47
34374;BME280;20637;55.770;37.592;2022-10-16T04:45:46;101023.06;;;6.79;62.54
34374;BME280;20637;55.770;37.592;2022-10-16T04:48:12;101014.56;;;6.85;62.32
34374;BME280;20637;55.770;37.592;2022-10-16T04:50:37;101020.31;;;6.91;62.52
34374;BME280;20637;55.770;37.592;2022-10-16T04:53:06;101026.13;;;6.98;62.58
34374;BME280;20637;55.770;37.592;2022-10-16T04:55:32;101023.31;;;6.99;62.14
34374;BME280;20637;55.770;37.592;2022-10-16T04:57:58;101029.56;;;7.00;62.34
34374;BME280;20637;55.770;37.592;2022-10-16T05:00:23;101036.75;;;6.99;62.05
34374;BME280;20637;55.770;37.592;2022-10-16T05:02:52;101032.88;;;7.03;62.28
34374;BME280;20637;55.770;37.592;2022-10-16T05:05:17;101031.03;;;7.04;61.91
34374;BME280;20637;55.770;37.592;2022-10-16T05:07:45;101034.50;;;7.06;62.26
34374;BME280;20637;55.770;37.592;2022-10-16T05:10:10;101039.00;;;7.05;61.87
34374;BME280;20637;55.770;37.592;2022-10-16T05:12:37;101041.69;;;7.05;62.12
34374;BME280;20637;55.770;37.592;2022-10-16T05:15:03;101035.44;;;7.05;62.30
34374;BME280;20637;55.770;37.592;2022-10-16T05:17:29;101031.81;;;7.06;62.14
34374;BME280;20637;55.770;37.592;2022-10-16T05:19:54;101034.69;;;7.03;62.09
34374;BME280;20637;55.770;37.592;2022-10-16T05:22:20;101038.38;;;7.02;62.09
34374;BME280;20637;55.770;37.592;2022-10-16T05:24:45;101044.47;;;7.04;62.43
34374;BME280;20637;55.770;37.592;2022-10-16T05:27:11;101038.75;;;7.08;62.43
34374;BME280;20637;55.770;37.592;2022-10-16T05:29:47;101044.66;;;7.13;61.72
34374;BME280;20637;55.770;37.592;2022-10-16T05:32:16;101043.69;;;7.14;61.85
34374;BME280;20637;55.770;37.592;2022-10-16T05:34:42;101047.59;;;7.10;61.98
34374;BME280;20637;55.770;37.592;2022-10-16T05:37:07;101058.31;;;7.10;61.94
34374;BME280;20637;55.770;37.592;2022-10-16T05:39:33;101047.22;;;7.15;62.05
34374;BME280;20637;55.770;37.592;2022-10-16T05:41:58;101049.81;;;7.16;62.27
34374;BME280;20637;55.770;37.592;2022-10-16T05:44:24;101055.09;;;7.18;62.28
34374;BME280;20637;55.770;37.592;2022-10-16T05:46:49;101048.16;;;7.27;62.03
34374;BME280;20637;55.770;37.592;2022-10-16T05:49:15;101046.09;;;7.30;61.79
34374;BME280;20637;55.770;37.592;2022-10-16T05:51:40;101047.59;;;7.34;61.55
34374;BME280;20637;55.770;37.592;2022-10-16T05:54:06;101044.78;;;7.36;61.30
34374;BME280;20637;55.770;37.592;2022-10-16T05:56:32;101041.00;;;7.38;61.50
34374;BME280;20637;55.770;37.592;2022-10-16T05:58:57;101055.06;;;7.42;61.61
34374;BME280;20637;55.770;37.592;2022-10-16T06:01:23;101049.50;;;7.45;61.44
34374;BME280;20637;55.770;37.592;2022-10-16T06:03:50;101053.00;;;7.45;61.25
34374;BME280;20637;55.770;37.592;2022-10-16T06:06:16;101052.81;;;7.48;61.60
34374;BME280;20637;55.770;37.592;2022-10-16T06:08:43;101057.09;;;7.51;61.72
34374;BME280;20637;55.770;37.592;2022-10-16T06:11:10;101064.06;;;7.53;61.28
34374;BME280;20637;55.770;37.592;2022-10-16T06:13:36;101057.28;;;7.60;61.66
34374;BME280;20637;55.770;37.592;2022-10-16T06:16:02;101054.22;;;7.65;61.29
34374;BME280;20637;55.770;37.592;2022-10-16T06:18:28;101048.50;;;7.70;61.07
34374;BME280;20637;55.770;37.592;2022-10-16T06:20:54;101057.09;;;7.75;60.29
34374;BME280;20637;55.770;37.592;2022-10-16T06:23:20;101052.22;;;7.80;61.15
34374;BME280;20637;55.770;37.592;2022-10-16T06:25:46;101057.13;;;7.86;60.50
34374;BME280;20637;55.770;37.592;2022-10-16T06:28:12;101057.75;;;7.89;60.81
34374;BME280;20637;55.770;37.592;2022-10-16T06:30:38;101066.34;;;7.94;60.57
34374;BME280;20637;55.770;37.592;2022-10-16T06:33:03;101063.31;;;7.99;59.91
34374;BME280;20637;55.770;37.592;2022-10-16T06:35:29;101059.84;;;7.97;59.61
34374;BME280;20637;55.770;37.592;2022-10-16T06:37:54;101070.09;;;7.92;59.15
34374;BME280;20637;55.770;37.592;2022-10-16T06:40:20;101074.25;;;7.96;59.79
34374;BME280;20637;55.770;37.592;2022-10-16T06:42:45;101065.75;;;8.02;59.43
34374;BME280;20637;55.770;37.592;2022-10-16T06:45:11;101066.25;;;8.07;59.54
34374;BME280;20637;55.770;37.592;2022-10-16T06:47:37;101066.88;;;8.10;59.40
34374;BME280;20637;55.770;37.592;2022-10-16T06:50:03;101062.84;;;8.16;58.80
34374;BME280;20637;55.770;37.592;2022-10-16T06:52:29;101065.09;;;8.22;58.50
34374;BME280;20637;55.770;37.592;2022-10-16T06:54:54;101063.97;;;8.25;58.37
34374;BME280;20637;55.770;37.592;2022-10-16T06:57:20;101066.41;;;8.28;58.58
34374;BME280;20637;55.770;37.592;2022-10-16T06:59:45;101070.63;;;8.32;58.04
34374;BME280;20637;55.770;37.592;2022-10-16T07:02:11;101071.25;;;8.35;58.59
34374;BME280;20637;55.770;37.592;2022-10-16T07:04:36;101070.88;;;8.40;57.91
34374;BME280;20637;55.770;37.592;2022-10-16T07:07:02;101075.91;;;8.44;58.00
34374;BME280;20637;55.770;37.592;2022-10-16T07:09:28;101072.97;;;8.47;57.83
34374;BME280;20637;55.770;37.592;2022-10-16T07:11:53;101079.22;;;8.48;57.96
34374;BME280;20637;55.770;37.592;2022-10-16T07:14:19;101073.34;;;8.54;57.96
34374;BME280;20637;55.770;37.592;2022-10-16T07:16:45;101068.97;;;8.64;57.90
34374;BME280;20637;55.770;37.592;2022-10-16T07:19:11;101070.81;;;8.75;58.02
34374;BME280;20637;55.770;37.592;2022-10-16T07:21:39;101070.81;;;8.86;57.75
34374;BME280;20637;55.770;37.592;2022-10-16T07:24:06;101074.59;;;8.94;57.40
34374;BME280;20637;55.770;37.592;2022-10-16T07:26:33;101075.81;;;9.01;56.85
34374;BME280;20637;55.770;37.592;2022-10-16T07:28:58;101073.38;;;9.09;56.82
34374;BME280;20637;55.770;37.592;2022-10-16T07:31:24;101081.44;;;9.21;56.89
34374;BME280;20637;55.770;37.592;2022-10-16T07:33:49;101073.47;;;9.30;56.53
34374;BME280;20637;55.770;37.592;2022-10-16T07:36:16;101076.50;;;9.37;55.80
34374;BME280;20637;55.770;37.592;2022-10-16T07:38:42;101076.78;;;9.34;55.33
34374;BME280;20637;55.770;37.592;2022-10-16T07:41:09;101075.06;;;9.33;55.46
34374;BME280;20637;55.770;37.592;2022-10-16T07:43:35;101071.72;;;9.40;55.55
34374;BME280;20637;55.770;37.592;2022-10-16T07:46:01;101073.69;;;9.49;55.99
34374;BME280;20637;55.770;37.592;2022-10-16T07:48:27;101072.56;;;9.52;55.04
34374;BME280;20637;55.770;37.592;2022-10-16T07:50:56;101071.44;;;9.54;55.58
34374;BME280;20637;55.770;37.592;2022-10-16T07:53:21;101071.91;;;9.60;55.02
34374;BME280;20637;55.770;37.592;2022-10-16T07:55:47;101069.56;;;9.66;55.39
34374;BME280;20637;55.770;37.592;2022-10-16T07:58:12;101080.72;;;9.73;55.53
34374;BME280;20637;55.770;37.592;2022-10-16T08:00:38;101077.50;;;9.79;54.90
34374;BME280;20637;55.770;37.592;2022-10-16T08:03:03;101079.44;;;9.88;54.85
34374;BME280;20637;55.770;37.592;2022-10-16T08:05:29;101086.13;;;9.93;54.74
34374;BME280;20637;55.770;37.592;2022-10-16T08:07:55;101073.59;;;10.03;54.66
34374;BME280;20637;55.770;37.592;2022-10-16T08:10:22;101085.06;;;10.17;54.29
34374;BME280;20637;55.770;37.592;2022-10-16T08:12:48;101082.47;;;10.26;54.59
34374;BME280;20637;55.770;37.592;2022-10-16T08:15:13;101082.31;;;10.28;54.35
34374;BME280;20637;55.770;37.592;2022-10-16T08:17:39;101074.50;;;10.25;54.44
34374;BME280;20637;55.770;37.592;2022-10-16T08:20:04;101076.31;;;10.24;53.96
34374;BME280;20637;55.770;37.592;2022-10-16T08:22:30;101073.91;;;10.21;53.95
34374;BME280;20637;55.770;37.592;2022-10-16T08:24:56;101071.94;;;10.23;54.35
34374;BME280;20637;55.770;37.592;2022-10-16T08:27:22;101068.31;;;10.34;54.68
34374;BME280;20637;55.770;37.592;2022-10-16T08:29:48;101077.47;;;10.42;54.50
34374;BME280;20637;55.770;37.592;2022-10-16T08:32:14;101066.41;;;10.45;53.90
34374;BME280;20637;55.770;37.592;2022-10-16T08:34:39;101074.34;;;10.47;54.23
34374;BME280;20637;55.770;37.592;2022-10-16T08:37:05;101072.13;;;10.52;54.14
34374;BME280;20637;55.770;37.592;2022-10-16T08:39:32;101076.38;;;10.55;54.17
34374;BME280;20637;55.770;37.592;2022-10-16T08:42:11;101072.44;;;10.59;54.17
34374;BME280;20637;55.770;37.592;2022-10-16T08:49:58;101070.41;;;10.81;52.89
34374;BME280;20637;55.770;37.592;2022-10-16T08:52:34;101061.91;;;10.86;52.62
34374;BME280;20637;55.770;37.592;2022-10-16T08:55:01;101069.03;;;10.87;52.26
34374;BME280;20637;55.770;37.592;2022-10-16T08:57:28;101057.81;;;10.91;52.28
34374;BME280;20637;55.770;37.592;2022-10-16T08:59:57;101060.69;;;10.99;52.35
34374;BME280;20637;55.770;37.592;2022-10-16T09:02:38;101061.97;;;11.05;52.11
34374;BME280;20637;55.770;37.592;2022-10-16T09:17:59;101066.34;;;11.27;51.15
34374;BME280;20637;55.770;37.592;2022-10-16T09:22:54;101056.81;;;11.32;51.90
34374;BME280;20637;55.770;37.592;2022-10-16T09:25:21;101046.00;;;11.32;51.40
34374;BME280;20637;55.770;37.592;2022-10-16T09:27:48;101051.44;;;11.42;51.29
34374;BME280;20637;55.770;37.592;2022-10-16T09:30:15;101051.75;;;11.58;50.80
34374;BME280;20637;55.770;37.592;2022-10-16T09:32:41;101055.59;;;11.65;51.02
34374;BME280;20637;55.770;37.592;2022-10-16T09:35:17;101063.72;;;11.65;50.24
34374;BME280;20637;55.770;37.592;2022-10-16T09:37:44;101042.06;;;11.65;50.01
34374;BME280;20637;55.770;37.592;2022-10-16T09:40:24;101048.38;;;11.75;49.67
34374;BME280;20637;55.770;37.592;2022-10-16T09:42:49;101054.66;;;11.85;49.74
34374;BME280;20637;55.770;37.592;2022-10-16T09:45:21;101048.09;;;11.88;49.42
34374;BME280;20637;55.770;37.592;2022-10-16T09:47:48;101048.53;;;11.83;49.58
34374;BME280;20637;55.770;37.592;2022-10-16T09:50:24;101047.25;;;11.87;48.79
34374;BME280;20637;55.770;37.592;2022-10-16T09:52:50;101041.25;;;11.93;49.12
34374;BME280;20637;55.770;37.592;2022-10-16T09:55:16;101038.53;;;11.93;48.71
34374;BME280;20637;55.770;37.592;2022-10-16T09:57:51;101031.69;;;11.89;48.68
34374;BME280;20637;55.770;37.592;2022-10-16T10:00:18;101035.28;;;12.00;48.08
34374;BME280;20637;55.770;37.592;2022-10-16T10:02:43;101023.88;;;12.06;47.56
34374;BME280;20637;55.770;37.592;2022-10-16T10:05:20;101029.56;;;12.12;47.68
34374;BME280;20637;55.770;37.592;2022-10-16T10:07:52;101028.28;;;12.16;46.92
34374;BME280;20637;55.770;37.592;2022-10-16T10:10:39;101028.97;;;12.18;47.38
34374;BME280;20637;55.770;37.592;2022-10-16T10:13:16;101030.69;;;12.19;47.40
34374;BME280;20637;55.770;37.592;2022-10-16T10:15:42;101025.13;;;12.21;47.67
34374;BME280;20637;55.770;37.592;2022-10-16T10:18:21;101020.00;;;12.27;47.42
34374;BME280;20637;55.770;37.592;2022-10-16T10:20:58;101017.25;;;12.37;46.75
34374;BME280;20637;55.770;37.592;2022-10-16T10:23:24;101021.69;;;12.38;46.56
34374;BME280;20637;55.770;37.592;2022-10-16T10:38:53;101022.69;;;12.37;46.64
34374;BME280;20637;55.770;37.592;2022-10-16T11:02:37;100997.56;;;12.54;46.92
34374;BME280;20637;55.770;37.592;2022-10-16T11:07:39;100998.53;;;12.53;46.06
34374;BME280;20637;55.770;37.592;2022-10-16T11:10:17;100997.25;;;12.48;46.71
34374;BME280;20637;55.770;37.592;2022-10-16T11:12:46;100993.88;;;12.46;46.74
34374;BME280;20637;55.770;37.592;2022-10-16T11:15:15;101011.66;;;12.48;46.97
34374;BME280;20637;55.770;37.592;2022-10-16T11:17:47;101004.84;;;12.44;46.81
34374;BME280;20637;55.770;37.592;2022-10-16T11:25:27;101003.81;;;12.55;47.23
34374;BME280;20637;55.770;37.592;2022-10-16T11:30:20;100995.06;;;12.70;47.02
34374;BME280;20637;55.770;37.592;2022-10-16T11:32:52;100997.84;;;12.78;46.65
34374;BME280;20637;55.770;37.592;2022-10-16T11:35:21;100989.47;;;12.72;46.06
34374;BME280;20637;55.770;37.592;2022-10-16T11:37:48;100991.09;;;12.65;46.24
34374;BME280;20637;55.770;37.592;2022-10-16T11:40:31;100985.53;;;12.66;46.73
34374;BME280;20637;55.770;37.592;2022-10-16T11:43:02;100993.94;;;12.63;46.36
34374;BME280;20637;55.770;37.592;2022-10-16T11:45:36;100983.56;;;12.59;46.47
34374;BME280;20637;55.770;37.592;2022-10-16T11:55:54;100983.63;;;12.76;46.22
34374;BME280;20637;55.770;37.592;2022-10-16T11:58:36;100976.50;;;12.75;46.51
34374;BME280;20637;55.770;37.592;2022-10-16T12:04:20;100977.59;;;12.82;46.94
34374;BME280;20637;55.770;37.592;2022-10-16T12:08:54;100983.94;;;13.28;45.46
34374;BME280;20637;55.770;37.592;2022-10-16T12:16:30;100977.34;;;13.13;45.88
34374;BME280;20637;55.770;37.592;2022-10-16T12:19:29;100972.78;;;13.04;46.46
34374;BME280;20637;55.770;37.592;2022-10-16T12:21:48;100984.06;;;12.99;46.72
34374;BME280;20637;55.770;37.592;2022-10-16T12:24:31;100964.88;;;12.93;46.03
34374;BME280;20637;55.770;37.592;2022-10-16T12:26:57;100959.75;;;12.89;47.11
34374;BME280;20637;55.770;37.592;2022-10-16T12:29:28;100959.00;;;12.97;46.45
34374;BME280;20637;55.770;37.592;2022-10-16T12:31:55;100959.13;;;13.23;46.15
34374;BME280;20637;55.770;37.592;2022-10-16T12:34:26;100952.84;;;13.22;45.20
34374;BME280;20637;55.770;37.592;2022-10-16T12:36:53;100950.22;;;13.13;46.17
34374;BME280;20637;55.770;37.592;2022-10-16T12:39:23;100953.94;;;13.02;46.09
34374;BME280;20637;55.770;37.592;2022-10-16T12:42:00;100952.72;;;12.97;46.81
34374;BME280;20637;55.770;37.592;2022-10-16T12:44:26;100952.00;;;12.95;46.73
34374;BME280;20637;55.770;37.592;2022-10-16T12:46:56;100954.72;;;12.95;46.46
34374;BME280;20637;55.770;37.592;2022-10-16T12:49:29;100953.31;;;12.90;45.83
34374;BME280;20637;55.770;37.592;2022-10-16T12:51:54;100957.31;;;12.86;46.14
34374;BME280;20637;55.770;37.592;2022-10-16T12:57:02;100952.38;;;12.82;46.91
34374;BME280;20637;55.770;37.592;2022-10-16T12:59:40;100961.94;;;12.76;46.56
34374;BME280;20637;55.770;37.592;2022-10-16T13:02:17;100956.41;;;12.68;47.16
34374;BME280;20637;55.770;37.592;2022-10-16T13:12:25;100950.66;;;12.54;47.11
34374;BME280;20637;55.770;37.592;2022-10-16T13:17:52;100961.91;;;12.49;46.65
34374;BME280;20637;55.770;37.592;2022-10-16T13:20:29;100958.66;;;12.46;46.67
34374;BME280;20637;55.770;37.592;2022-10-16T13:28:10;100948.81;;;12.45;47.42
34374;BME280;20637;55.770;37.592;2022-10-16T13:33:19;100956.63;;;12.48;47.39
34374;BME280;20637;55.770;37.592;2022-10-16T13:35:48;100946.22;;;12.53;47.08
34374;BME280;20637;55.770;37.592;2022-10-16T13:38:15;100956.06;;;12.54;46.96
34374;BME280;20637;55.770;37.592;2022-10-16T13:43:16;100955.22;;;12.53;47.60
34374;BME280;20637;55.770;37.592;2022-10-16T13:45:52;100958.78;;;12.54;47.12
34374;BME280;20637;55.770;37.592;2022-10-16T13:48:17;100949.94;;;12.52;47.51
34374;BME280;20637;55.770;37.592;2022-10-16T13:50:43;100948.06;;;12.52;47.28
34374;BME280;20637;55.770;37.592;2022-10-16T13:53:14;100950.94;;;12.51;47.33
34374;BME280;20637;55.770;37.592;2022-10-16T13:55:40;100948.69;;;12.46;47.32
34374;BME280;20637;55.770;37.592;2022-10-16T13:58:11;100949.00;;;12.43;47.12
34374;BME280;20637;55.770;37.592;2022-10-16T14:00:37;100946.72;;;12.38;47.49
34374;BME280;20637;55.770;37.592;2022-10-16T14:03:15;100957.00;;;12.35;47.66
34374;BME280;20637;55.770;37.592;2022-10-16T14:05:48;100955.59;;;12.31;47.75
34374;BME280;20637;55.770;37.592;2022-10-16T14:08:14;100949.75;;;12.26;47.96
34374;BME280;20637;55.770;37.592;2022-10-16T14:10:40;100955.16;;;12.26;48.06
34374;BME280;20637;55.770;37.592;2022-10-16T14:13:06;100949.31;;;12.21;47.73
34374;BME280;20637;55.770;37.592;2022-10-16T14:15:33;100954.59;;;12.22;47.80
34374;BME280;20637;55.770;37.592;2022-10-16T14:17:59;100957.44;;;12.21;48.19
34374;BME280;20637;55.770;37.592;2022-10-16T14:20:32;100963.03;;;12.19;48.18
34374;BME280;20637;55.770;37.592;2022-10-16T14:23:18;100954.03;;;12.19;48.23
34374;BME280;20637;55.770;37.592;2022-10-16T14:25:44;100958.59;;;12.18;48.25
34374;BME280;20637;55.770;37.592;2022-10-16T14:30:48;100946.91;;;12.18;48.39
34374;BME280;20637;55.770;37.592;2022-10-16T14:35:58;100962.59;;;12.14;48.87
34374;BME280;20637;55.770;37.592;2022-10-16T14:38:25;100958.47;;;12.10;49.03
34374;BME280;20637;55.770;37.592;2022-10-16T14:40:50;100953.66;;;12.04;48.56
34374;BME280;20637;55.770;37.592;2022-10-16T14:43:24;100958.03;;;12.05;48.64
34374;BME280;20637;55.770;37.592;2022-10-16T14:45:53;100953.94;;;12.01;49.15
34374;BME280;20637;55.770;37.592;2022-10-16T14:48:19;100963.19;;;11.99;48.88
34374;BME280;20637;55.770;37.592;2022-10-16T14:50:46;100959.06;;;11.94;48.96
34374;BME280;20637;55.770;37.592;2022-10-16T14:53:11;100954.81;;;11.92;49.31